createdAt,value
2024-04-05T14:28:09.790Z,1.60
2024-04-05T14:33:14.009Z,1.20
2024-04-05T14:38:18.389Z,1.35
2024-04-05T14:43:24.893Z,1.42
2024-04-05T14:48:29.180Z,1.30
2024-04-05T14:53:34.717Z,1.52
2024-04-05T14:58:41.097Z,1.20
2024-04-05T15:03:45.411Z,1.30
2024-04-05T15:08:53.581Z,1.50
2024-04-05T15:14:01.359Z,1.50
2024-04-05T15:19:05.636Z,1.70
2024-04-05T15:24:10.268Z,1.90
2024-04-05T15:29:16.753Z,1.13
2024-04-05T15:34:20.847Z,1.58
2024-04-05T15:39:26.321Z,1.60
2024-04-05T15:44:35.941Z,1.70
2024-04-05T15:49:40.780Z,1.35
2024-04-05T15:54:51.159Z,1.38
2024-04-05T15:59:57.640Z,1.55
2024-04-05T16:05:02.156Z,1.65
2024-04-05T16:10:07.896Z,1.95
2024-04-05T16:15:14.055Z,1.60
2024-04-05T16:20:18.648Z,1.60
2024-04-05T16:25:22.761Z,1.60
2024-04-05T16:30:30.719Z,2.00
2024-04-05T16:35:34.796Z,1.73
2024-04-05T16:40:39.391Z,1.80
2024-04-05T16:45:46.255Z,1.38
2024-04-05T16:50:50.539Z,1.80
2024-04-05T16:55:55.066Z,1.42
2024-04-05T17:01:01.372Z,2.28
2024-04-05T17:06:09.866Z,1.95
2024-04-05T17:11:15.340Z,1.60
2024-04-05T17:16:23.435Z,1.75
2024-04-05T17:21:44.931Z,2.13
2024-04-05T17:26:52.741Z,3.60
2024-04-05T17:32:05.044Z,3.40
2024-04-05T17:37:10.038Z,2.85
2024-04-05T17:42:14.248Z,2.85
2024-04-05T17:47:20.183Z,2.15
2024-04-05T17:52:24.524Z,2.10
2024-04-05T17:57:28.717Z,2.30
2024-04-05T18:02:36.676Z,2.55
2024-04-05T18:07:41.205Z,1.95
2024-04-05T18:12:45.325Z,2.13
2024-04-05T18:17:51.960Z,2.13
2024-04-05T18:22:56.161Z,1.98
2024-04-05T18:28:00.418Z,1.77
2024-04-05T18:33:07.850Z,1.58
2024-04-05T18:38:12.889Z,1.67
2024-04-05T18:43:20.732Z,2.03
2024-04-05T18:48:27.194Z,1.90
2024-04-05T18:53:31.554Z,1.80
2024-04-05T18:58:37.258Z,1.93
2024-04-05T19:03:58.945Z,2.88
2024-04-05T19:09:25.330Z,2.03
2024-04-05T19:14:31.342Z,2.10
2024-04-05T19:19:38.068Z,3.00
2024-04-05T19:24:42.696Z,3.10
2024-04-05T19:29:48.467Z,2.83
2024-04-05T19:34:56.050Z,2.47
2024-04-05T19:40:11.719Z,2.27
2024-04-05T19:45:20.290Z,2.30
2024-04-05T19:50:28.082Z,2.00
2024-04-05T19:55:34.921Z,1.97
2024-04-05T20:00:39.449Z,1.70
2024-04-05T20:05:49.449Z,2.00
2024-04-05T20:10:58.862Z,2.20
2024-04-05T20:16:05.343Z,2.10
2024-04-05T20:21:14.684Z,2.10
2024-04-05T20:26:21.052Z,1.60
2024-04-05T20:31:38.497Z,1.80
2024-04-05T20:36:46.742Z,1.80
2024-04-05T20:41:51.068Z,1.80
2024-04-05T20:46:55.375Z,1.70
2024-04-05T20:52:02.486Z,2.03
2024-04-05T20:57:07.511Z,1.90
2024-04-05T21:02:11.693Z,1.80
2024-04-05T21:07:17.742Z,3.17
2024-04-05T21:12:21.998Z,2.93
2024-04-05T21:17:26.064Z,2.83
2024-04-05T21:22:33.018Z,2.50
2024-04-05T21:27:37.050Z,2.27
2024-04-05T21:32:41.385Z,2.10
2024-04-05T21:37:47.520Z,2.03
2024-04-05T21:42:51.655Z,2.03
2024-04-05T21:47:56.082Z,2.50
2024-04-05T21:53:02.806Z,1.70
2024-04-05T21:58:07.141Z,1.97
2024-04-05T22:03:11.390Z,1.80
2024-04-05T22:08:18.733Z,1.83
2024-04-05T22:13:22.839Z,1.23
2024-04-05T22:18:27.733Z,1.47
2024-04-05T22:23:33.747Z,1.60
2024-04-05T22:28:37.887Z,1.90
2024-04-05T22:33:42.031Z,1.90
2024-04-05T22:38:48.620Z,1.93
2024-04-05T22:43:52.601Z,1.33
2024-04-05T22:48:56.895Z,1.80
2024-04-05T22:54:04.401Z,2.20
2024-04-05T22:59:09.540Z,2.00
2024-04-05T23:04:14.005Z,1.70
2024-04-05T23:09:20.056Z,2.20
2024-04-05T23:14:24.189Z,1.90
2024-04-05T23:19:30.227Z,2.03
2024-04-05T23:24:36.159Z,1.73
2024-04-05T23:29:40.468Z,2.17
